Grace Nicole — WDC2451 — position and weather

sailwx.info

Track history (hours):
 
Tides and Currents Weather Stations Pressure Air Temp Water Temp Dewpoint Dewpoint Depression Visibility Wind Speed Wind Dir Waves Ship Positions

Grace Nicole

Owner: Florida Marine, LLC, Mandeville, LA. More information available from US FCC via Universal Licensing System and Coast Guard Vessel Documentation Center.

Last reported at 2018-Apr-25 23:30 UTC. Time now 2018-Apr-25 23:49 UTC.
Position N 29°58' W 093°52'.

Length 28 m; draft 9.6 m.

Type: Towing. MMSI: 366993380.

Date/timePositionNaut miles runAvg speedWind from/ knotsBaromVisibWave heightAir tempDewpointWater temp
2018-Apr-25 23:30N 29°58' W 093°52'0 0.0
2018-Apr-25 23:00N 29°58' W 093°52'0 0.0
2018-Apr-25 22:30N 29°58' W 093°52'0 0.0
2018-Apr-25 22:00N 29°58' W 093°52'0 0.0
2018-Apr-25 21:30N 29°58' W 093°52'0 0.0
2018-Apr-25 21:00N 29°58' W 093°52'0 0.0
2018-Apr-25 20:30N 29°58' W 093°52'0 0.0
2018-Apr-25 20:00N 29°58' W 093°52'0 0.0
2018-Apr-25 19:30N 29°58' W 093°52'0 0.0
2018-Apr-25 19:00N 29°58' W 093°52'0 0.0
2018-Apr-25 18:31N 29°58' W 093°52'0 0.0
2018-Apr-25 18:01N 29°58' W 093°52'0 0.0
2018-Apr-25 17:30N 29°58' W 093°52'0 0.0
2018-Apr-25 17:01N 29°58' W 093°52'0 0.0
2018-Apr-25 16:30N 29°58' W 093°52'0 0.0
2018-Apr-25 16:01N 29°58' W 093°52'0 0.0
2018-Apr-25 15:30N 29°58' W 093°52'0 0.0
2018-Apr-25 15:00N 29°58' W 093°52'0 0.0
2018-Apr-25 14:31N 29°58' W 093°52'0 0.0
2018-Apr-25 14:01N 29°58' W 093°52'0 0.0
2018-Apr-25 13:31N 29°58' W 093°52'0 0.0
2018-Apr-25 13:01N 29°58' W 093°52'0 0.0
2018-Apr-25 12:30N 29°58' W 093°52'0 0.0
2018-Apr-25 12:01N 29°58' W 093°52'0 0.0
2018-Apr-25 11:31N 29°58' W 093°52'0 0.0
2018-Apr-25 11:00N 29°58' W 093°52'0 0.0
2018-Apr-25 10:30N 29°58' W 093°52'0 0.0
2018-Apr-25 10:00N 29°58' W 093°52'0 0.0
2018-Apr-25 09:30N 29°58' W 093°52'0 0.0
2018-Apr-25 09:00N 29°58' W 093°52'0 0.0
2018-Apr-25 08:30N 29°58' W 093°52'0 0.0
2018-Apr-25 08:00N 29°58' W 093°52'0 0.0
2018-Apr-25 07:31N 29°58' W 093°52'0 0.0
2018-Apr-25 07:00N 29°58' W 093°52'0 0.0
2018-Apr-25 06:30N 29°58' W 093°52'0 0.0
2018-Apr-25 06:01N 29°58' W 093°52'0 0.0
2018-Apr-25 05:30N 29°58' W 093°52'0 0.0
2018-Apr-25 05:01N 29°58' W 093°52'0 0.0
2018-Apr-25 04:31N 29°58' W 093°52'0 0.0
2018-Apr-25 04:01N 29°58' W 093°52'0 0.0
2018-Apr-25 03:30N 29°58' W 093°52'0 0.0
2018-Apr-25 03:00N 29°58' W 093°52'0 0.0
2018-Apr-25 02:30N 29°58' W 093°52'0 0.0
2018-Apr-25 02:01N 29°58' W 093°52'0 0.0
2018-Apr-25 01:30N 29°58' W 093°52'0 0.0
2018-Apr-25 01:01N 29°58' W 093°52'0 0.0
2018-Apr-25 00:30N 29°58' W 093°52'0 0.0
2018-Apr-25 00:00N 29°58' W 093°52'0 0.0
2018-Apr-24 23:30N 29°58' W 093°52'0 0.0
2018-Apr-24 22:11N 29°58' W 093°52'0 0.0
2018-Apr-24 22:00N 29°58' W 093°52'0 0.0
2018-Apr-24 21:30N 29°58' W 093°52'0 0.0
2018-Apr-24 21:01N 29°58' W 093°52'0 0.0
2018-Apr-24 20:31N 29°58' W 093°52'0 0.0
2018-Apr-24 20:00N 29°58' W 093°52'0 0.0
2018-Apr-24 19:31N 29°58' W 093°52'0 0.0
2018-Apr-24 19:01N 29°58' W 093°52'0 0.0
2018-Apr-24 18:30N 29°58' W 093°52'0 0.0
2018-Apr-24 18:00N 29°58' W 093°52'0 0.0
2018-Apr-24 17:31N 29°58' W 093°52'0 0.0
2018-Apr-24 17:01N 29°58' W 093°52'0 0.1
2018-Apr-24 16:30N 29°58' W 093°52'3 6.2
2018-Apr-24 16:01N 29°60' W 093°55'0 0.2
2018-Apr-24 15:31N 29°60' W 093°55'0 0.0
2018-Apr-24 15:00N 29°60' W 093°55'0 0.0
2018-Apr-24 14:30N 29°60' W 093°55'0 0.0
2018-Apr-24 14:00N 29°60' W 093°55'0 0.0
2018-Apr-24 13:31N 29°60' W 093°55'0 0.0
2018-Apr-24 13:01N 29°60' W 093°55'0 0.0
2018-Apr-24 12:30N 29°60' W 093°55'1 1.3
2018-Apr-24 12:00N 29°60' W 093°55'3 5.9
2018-Apr-24 11:30N 30°01' W 093°59'1 1.6
2018-Apr-24 11:01N 30°01' W 093°59'0 0.4
2018-Apr-24 10:30N 30°01' W 093°59'3 5.0
2018-Apr-24 10:00N 30°01' W 094°02'3 6.9
2018-Apr-24 09:30N 30°05' W 094°04'0 0.0
2018-Apr-24 09:01N 30°04' W 094°04'0 0.0
2018-Apr-24 08:30N 30°04' W 094°04'0 0.1
2018-Apr-24 08:00N 30°04' W 094°04'0 0.0
2018-Apr-24 07:30N 30°04' W 094°04'3 5.3
2018-Apr-24 07:00N 30°02' W 094°02'3 5.6
2018-Apr-24 06:30N 30°01' W 093°59'0 0.9
2018-Apr-24 06:00N 30°01' W 093°59'3 6.3
2018-Apr-24 05:30N 29°59' W 093°56'1 1.8
2018-Apr-24 05:01N 29°60' W 093°55'0 0.0
2018-Apr-24 04:30N 29°60' W 093°55'0 0.0
2018-Apr-24 04:00N 29°60' W 093°55'0 0.0
2018-Apr-24 03:30N 29°60' W 093°55'0 0.0
2018-Apr-24 03:00N 29°60' W 093°55'0 0.0
2018-Apr-24 02:30N 29°60' W 093°55'0 0.0
2018-Apr-24 02:00N 29°60' W 093°55'0 0.0
2018-Apr-24 01:30N 29°60' W 093°55'0 0.0
2018-Apr-24 01:00N 29°60' W 093°55'0 0.0
2018-Apr-24 00:31N 29°60' W 093°55'0 0.0
2018-Apr-24 00:00N 29°60' W 093°55'2 4.9
2018-Apr-23 23:30N 29°59' W 093°52'2 3.3
2018-Apr-23 23:01N 29°59' W 093°50'4 8.2
2018-Apr-23 22:29N 30°00' W 093°46'4 7.7
2018-Apr-23 21:56N 30°03' W 093°42'3 6.9
2018-Apr-23 21:30N 30°04' W 093°39'3 6.9
2018-Apr-23 21:00N 30°04' W 093°35'3 5.5
2018-Apr-23 20:30N 30°04' W 093°32'0 0.1
2018-Apr-23 20:00N 30°04' W 093°32'0 0.1
2018-Apr-23 19:30N 30°04' W 093°32'4 7.2
2018-Apr-23 19:00N 30°04' W 093°36'4 8.5
2018-Apr-23 18:30N 30°04' W 093°41'4 7.3
2018-Apr-23 18:01N 30°02' W 093°44'4 7.4
2018-Apr-23 17:30N 29°59' W 093°47'4 7.2
2018-Apr-23 17:01N 29°58' W 093°51'0 0.9
2018-Apr-23 16:30N 29°58' W 093°52'0 0.7
2018-Apr-23 16:00N 29°58' W 093°52'0 0.0
2018-Apr-23 15:29N 29°58' W 093°52'0 0.0
2018-Apr-23 15:00N 29°58' W 093°52'0 0.0
2018-Apr-23 14:31N 29°58' W 093°52'0 0.0
2018-Apr-23 13:59N 29°58' W 093°52'3 5.5
2018-Apr-23 13:30N 29°59' W 093°54'1 1.2
2018-Apr-23 13:00N 29°60' W 093°55'0 0.0
2018-Apr-23 12:30N 29°60' W 093°55'0 0.0
2018-Apr-23 12:01N 29°60' W 093°55'0 0.0
2018-Apr-23 11:30N 29°60' W 093°55'0 0.0
2018-Apr-23 11:01N 29°60' W 093°55'0 0.0
2018-Apr-23 10:30N 29°60' W 093°55'0 0.0
2018-Apr-23 10:00N 29°60' W 093°55'0 0.0
2018-Apr-23 09:30N 29°60' W 093°55'0 0.0
2018-Apr-23 09:00N 29°60' W 093°55'0 0.0
2018-Apr-23 08:30N 29°60' W 093°55'0 0.0
2018-Apr-23 08:01N 29°60' W 093°55'0 0.0
2018-Apr-23 07:30N 29°60' W 093°55'0 0.0
2018-Apr-23 07:00N 29°60' W 093°55'0 0.0
2018-Apr-23 06:31N 29°60' W 093°55'0 0.0
2018-Apr-23 06:00N 29°60' W 093°55'2 3.2
2018-Apr-23 05:30N 29°59' W 093°53'0 0.5
2018-Apr-23 05:00N 29°59' W 093°53'0 0.0
2018-Apr-23 04:30N 29°59' W 093°53'0 0.0
2018-Apr-23 04:00N 29°59' W 093°53'0 0.0
2018-Apr-23 03:31N 29°59' W 093°53'0 0.0
2018-Apr-23 03:00N 29°59' W 093°53'0 0.0
2018-Apr-23 02:31N 29°59' W 093°53'0 0.0
2018-Apr-23 02:00N 29°59' W 093°53'0 0.0
2018-Apr-23 01:30N 29°59' W 093°53'0 0.0
2018-Apr-23 01:00N 29°59' W 093°53'0 0.0
2018-Apr-23 00:30N 29°59' W 093°53'0 0.0
2018-Apr-23 00:00N 29°59' W 093°53'0 0.0
2018-Apr-22 23:30N 29°59' W 093°53'0 0.0
2018-Apr-22 23:01N 29°59' W 093°53'0 0.0
2018-Apr-22 22:30N 29°59' W 093°53'0 0.0
2018-Apr-22 22:00N 29°59' W 093°53'0 0.0
2018-Apr-22 21:30N 29°59' W 093°53'0 0.0
2018-Apr-22 21:00N 29°59' W 093°53'0 0.0
2018-Apr-22 20:30N 29°59' W 093°53'0 0.0
2018-Apr-22 20:00N 29°59' W 093°53'0 0.0
2018-Apr-22 19:30N 29°59' W 093°53'0 0.0
2018-Apr-22 19:00N 29°59' W 093°53'0 0.0
2018-Apr-22 18:30N 29°59' W 093°53'0 0.0
2018-Apr-22 18:00N 29°59' W 093°53'0 0.0
2018-Apr-22 17:30N 29°59' W 093°53'0 0.0
2018-Apr-22 17:00N 29°59' W 093°53'0 0.0
2018-Apr-22 16:30N 29°59' W 093°53'0 0.0
2018-Apr-22 16:00N 29°59' W 093°53'0 0.0
2018-Apr-22 15:31N 29°59' W 093°53'0 0.0
2018-Apr-22 15:01N 29°59' W 093°53'0 0.0
2018-Apr-22 14:30N 29°59' W 093°53'0 0.0
2018-Apr-22 14:00N 29°59' W 093°53'0 0.0
2018-Apr-22 13:30N 29°59' W 093°53'0 0.0
2018-Apr-22 13:00N 29°59' W 093°53'0 0.0
2018-Apr-22 12:30N 29°59' W 093°53'0 0.0
2018-Apr-22 12:00N 29°59' W 093°53'0 0.0
2018-Apr-22 11:31N 29°59' W 093°53'0 0.0
2018-Apr-22 11:00N 29°59' W 093°53'0 0.0
2018-Apr-22 10:30N 29°59' W 093°53'0 0.0
2018-Apr-22 10:00N 29°59' W 093°53'0 0.0
2018-Apr-22 09:30N 29°59' W 093°53'0 0.0
2018-Apr-22 09:01N 29°59' W 093°53'0 0.0
2018-Apr-22 08:30N 29°59' W 093°53'0 0.0
2018-Apr-22 08:00N 29°59' W 093°53'0 0.0
2018-Apr-22 07:31N 29°59' W 093°53'0 0.0
2018-Apr-22 07:00N 29°59' W 093°53'0 0.0
2018-Apr-22 06:30N 29°59' W 093°53'0 0.0
2018-Apr-22 06:00N 29°59' W 093°53'0 0.0
2018-Apr-22 05:30N 29°59' W 093°53'0 0.0
2018-Apr-22 05:00N 29°59' W 093°53'0 0.0
2018-Apr-22 04:30N 29°59' W 093°53'0 0.0
2018-Apr-22 04:00N 29°59' W 093°53'0 0.0
2018-Apr-22 03:30N 29°59' W 093°53'0 0.0
2018-Apr-22 03:01N 29°59' W 093°53'0 0.0
2018-Apr-22 02:31N 29°59' W 093°53'0 0.0
2018-Apr-22 02:00N 29°59' W 093°53'0 0.0
2018-Apr-22 01:31N 29°59' W 093°53'0 0.0
2018-Apr-22 01:01N 29°59' W 093°53'0 0.0
2018-Apr-22 00:31N 29°59' W 093°53'0 0.0
2018-Apr-22 00:01N 29°59' W 093°53'0 0.0
2018-Apr-21 23:31N 29°59' W 093°53'0 0.0
2018-Apr-21 23:01N 29°59' W 093°53'0 0.0
2018-Apr-21 22:30N 29°59' W 093°53'0 0.0
2018-Apr-21 22:00N 29°59' W 093°53'0 0.0
2018-Apr-21 21:30N 29°59' W 093°53'0 0.0
2018-Apr-21 21:01N 29°59' W 093°53'0 0.0
2018-Apr-21 20:31N 29°59' W 093°53'0 0.0
2018-Apr-21 20:01N 29°59' W 093°53'0 0.0
2018-Apr-21 19:31N 29°59' W 093°53'0 0.0
2018-Apr-21 19:01N 29°59' W 093°53'0 0.0
2018-Apr-21 18:30N 29°59' W 093°53'0 0.0
2018-Apr-21 18:01N 29°59' W 093°53'0 0.0
2018-Apr-21 17:30N 29°59' W 093°53'0 0.1
2018-Apr-21 17:01N 29°59' W 093°53'1 1.3
2018-Apr-21 16:31N 29°59' W 093°52'1 2.3
2018-Apr-21 16:00N 29°58' W 093°51'1 1.0
2018-Apr-21 15:30N 29°58' W 093°51'3 5.3
2018-Apr-21 15:00N 29°59' W 093°54'3 5.4
2018-Apr-21 14:31N 29°58' W 093°51'0 0.5
2018-Apr-21 14:00N 29°58' W 093°52'0 0.0
2018-Apr-21 13:30N 29°58' W 093°52'0 0.0
2018-Apr-21 13:00N 29°58' W 093°52'0 0.0
2018-Apr-21 12:30N 29°58' W 093°52'0 0.0
2018-Apr-21 12:00N 29°58' W 093°52'0 0.0
2018-Apr-21 11:31N 29°58' W 093°52'0 0.0
2018-Apr-21 11:01N 29°58' W 093°52'0 0.0
2018-Apr-21 10:30N 29°58' W 093°52'0 0.0
2018-Apr-21 10:00N 29°58' W 093°52'0 0.0
2018-Apr-21 09:30N 29°58' W 093°52'0 0.0
2018-Apr-21 09:01N 29°58' W 093°52'0 0.0
2018-Apr-21 08:30N 29°58' W 093°52'0 0.0
2018-Apr-21 08:01N 29°58' W 093°52'0 0.0
2018-Apr-21 07:31N 29°58' W 093°52'0 0.0
2018-Apr-21 07:00N 29°58' W 093°52'0 0.0
2018-Apr-21 06:30N 29°58' W 093°52'0 0.0
2018-Apr-21 06:00N 29°58' W 093°52'0 0.0
2018-Apr-21 05:29N 29°58' W 093°52'0 0.0
2018-Apr-21 04:59N 29°58' W 093°52'0 0.0
2018-Apr-21 04:30N 29°58' W 093°52'0 0.0
2018-Apr-21 04:00N 29°58' W 093°52'0 0.0
2018-Apr-21 03:30N 29°58' W 093°52'0 0.0
2018-Apr-21 03:00N 29°58' W 093°52'0 0.0
2018-Apr-21 02:30N 29°58' W 093°52'0 0.0
2018-Apr-21 02:00N 29°58' W 093°52'0 0.0
2018-Apr-21 01:30N 29°58' W 093°52'0 0.0
2018-Apr-21 00:59N 29°58' W 093°52'0 0.0
2018-Apr-21 00:30N 29°58' W 093°52'0 0.0
2018-Apr-21 00:00N 29°58' W 093°52'0 0.0
2018-Apr-20 23:30N 29°58' W 093°52'0 0.0
2018-Apr-20 23:01N 29°58' W 093°52'0 0.0
2018-Apr-20 22:30N 29°58' W 093°52'0 0.0
2018-Apr-20 22:01N 29°58' W 093°52'0 0.0
2018-Apr-20 21:30N 29°58' W 093°52'0 0.0
2018-Apr-20 21:00N 29°58' W 093°52'0 0.0
2018-Apr-20 20:30N 29°58' W 093°52'0 0.0
2018-Apr-20 20:01N 29°58' W 093°52'0 0.0
2018-Apr-20 19:29N 29°58' W 093°52'0 0.0
2018-Apr-20 19:01N 29°58' W 093°52'0 0.0
2018-Apr-20 18:27N 29°58' W 093°52'0 0.0
2018-Apr-20 18:00N 29°58' W 093°52'0 0.0
2018-Apr-20 17:30N 29°58' W 093°52'0 0.0
2018-Apr-20 17:00N 29°58' W 093°52'0 0.0
2018-Apr-20 16:30N 29°58' W 093°52'0 0.0
2018-Apr-20 16:00N 29°58' W 093°52'0 0.0
2018-Apr-20 15:29N 29°58' W 093°52'0 0.0
2018-Apr-20 15:00N 29°58' W 093°52'0 0.0
2018-Apr-20 14:31N 29°58' W 093°52'0 0.0
2018-Apr-20 14:00N 29°58' W 093°52'0 0.0
2018-Apr-20 13:29N 29°58' W 093°52'0 0.0
2018-Apr-20 13:00N 29°58' W 093°52'0 0.0
2018-Apr-20 12:30N 29°58' W 093°52'0 0.0
2018-Apr-20 11:59N 29°58' W 093°52'0 0.0
2018-Apr-20 11:31N 29°58' W 093°52'0 0.0
2018-Apr-20 11:01N 29°58' W 093°52'0 0.0
2018-Apr-20 10:31N 29°58' W 093°52'0 0.0
2018-Apr-20 10:00N 29°58' W 093°52'0 0.0
2018-Apr-20 09:30N 29°58' W 093°52'0 0.0
2018-Apr-20 09:00N 29°58' W 093°52'0 0.0
2018-Apr-20 08:29N 29°58' W 093°52'0 0.0
2018-Apr-20 08:00N 29°58' W 093°52'0 0.0
2018-Apr-20 07:30N 29°58' W 093°52'0 0.0
2018-Apr-20 06:59N 29°58' W 093°52'0 0.0
2018-Apr-20 06:29N 29°58' W 093°52'0 0.0
2018-Apr-20 05:59N 29°58' W 093°52'0 0.0
2018-Apr-20 05:29N 29°58' W 093°52'0 0.0
2018-Apr-20 05:00N 29°58' W 093°52'0 0.0
2018-Apr-20 04:30N 29°58' W 093°52'0 0.0
2018-Apr-20 04:00N 29°58' W 093°52'0 0.0
2018-Apr-20 03:30N 29°58' W 093°52'0 0.0
2018-Apr-20 03:00N 29°58' W 093°52'0 0.0
2018-Apr-20 02:31N 29°58' W 093°52'0 0.0
2018-Apr-20 01:59N 29°58' W 093°52'0 0.0
2018-Apr-20 01:30N 29°58' W 093°52'0 0.0
2018-Apr-20 01:01N 29°58' W 093°52'0 0.0
2018-Apr-20 00:30N 29°58' W 093°52'0 0.0
2018-Apr-20 00:00N 29°58' W 093°52'0 0.0
2018-Apr-19 23:30N 29°58' W 093°52'0 0.0
2018-Apr-19 22:59N 29°58' W 093°52'0 0.0
2018-Apr-19 22:30N 29°58' W 093°52'0 0.0
2018-Apr-19 22:00N 29°58' W 093°52'0 0.0
2018-Apr-19 21:31N 29°58' W 093°52'0 0.0
2018-Apr-19 20:59N 29°58' W 093°52'0 0.0
2018-Apr-19 20:30N 29°58' W 093°52'0 0.0
2018-Apr-19 20:01N 29°58' W 093°52'0 0.0
2018-Apr-19 19:31N 29°58' W 093°52'0 0.0
2018-Apr-19 19:00N 29°58' W 093°52'0 0.0
2018-Apr-19 18:31N 29°58' W 093°52'0 0.4
2018-Apr-19 18:00N 29°58' W 093°51'0 0.4
2018-Apr-19 17:28N 29°58' W 093°52'0 0.0
2018-Apr-19 17:00N 29°58' W 093°52'0 0.0
2018-Apr-19 16:30N 29°58' W 093°52'0 0.0
2018-Apr-19 16:00N 29°58' W 093°52'0 0.0
2018-Apr-19 15:31N 29°58' W 093°52'0 0.0
2018-Apr-19 15:00N 29°58' W 093°52'0 0.0
2018-Apr-19 14:30N 29°58' W 093°52'0 0.0
2018-Apr-19 14:01N 29°58' W 093°52'0 0.0
2018-Apr-19 13:28N 29°58' W 093°52'0 0.0
2018-Apr-19 13:01N 29°58' W 093°52'0 0.0
2018-Apr-19 12:30N 29°58' W 093°52'0 0.0
2018-Apr-19 12:00N 29°58' W 093°52'0 0.0
2018-Apr-19 11:31N 29°58' W 093°52'0 0.0
2018-Apr-19 10:59N 29°58' W 093°52'0 0.0
2018-Apr-19 10:30N 29°58' W 093°52'0 0.0
2018-Apr-19 10:00N 29°58' W 093°52'0 0.0
2018-Apr-19 09:31N 29°58' W 093°52'0 0.0
2018-Apr-19 09:00N 29°58' W 093°52'0 0.0
2018-Apr-19 08:30N 29°58' W 093°52'0 0.0
2018-Apr-19 08:01N 29°58' W 093°52'0 0.0
2018-Apr-19 07:30N 29°58' W 093°52'0 0.0
2018-Apr-19 07:01N 29°58' W 093°52'0 0.0
2018-Apr-19 06:30N 29°58' W 093°52'0 0.0
2018-Apr-19 06:00N 29°58' W 093°52'0 0.0
2018-Apr-19 05:31N 29°58' W 093°52'0 0.0
2018-Apr-19 04:59N 29°58' W 093°52'0 0.0
2018-Apr-19 04:30N 29°58' W 093°52'0 0.0
2018-Apr-19 04:00N 29°58' W 093°52'0 0.0
2018-Apr-19 03:30N 29°58' W 093°52'0 0.0
2018-Apr-19 02:58N 29°58' W 093°52'0 0.0
2018-Apr-19 02:30N 29°58' W 093°52'0 0.0
2018-Apr-19 02:00N 29°58' W 093°52'0 0.0
2018-Apr-19 01:31N 29°58' W 093°52'0 0.0
2018-Apr-19 00:59N 29°58' W 093°52'0 0.0
2018-Apr-19 00:30N 29°58' W 093°52'0 0.0
2018-Apr-18 23:58N 29°58' W 093°52'0 0.0
2018-Apr-18 23:30N 29°58' W 093°52'0 0.0
2018-Apr-18 23:00N 29°58' W 093°52'0 0.0
2018-Apr-18 22:30N 29°58' W 093°52'0 0.0
2018-Apr-18 22:00N 29°58' W 093°52'0 0.0
2018-Apr-18 21:29N 29°58' W 093°52'0 0.0
2018-Apr-18 21:00N 29°58' W 093°52'0 0.0
2018-Apr-18 20:31N 29°58' W 093°52'0 0.0
2018-Apr-18 20:01N 29°58' W 093°52'0 0.0
2018-Apr-18 19:31N 29°58' W 093°52'0 0.0
2018-Apr-18 19:00N 29°58' W 093°52'0 0.0
2018-Apr-18 18:30N 29°58' W 093°52'0 0.0
2018-Apr-18 18:01N 29°58' W 093°52'0 0.0
2018-Apr-18 17:31N 29°58' W 093°52'0 0.0
2018-Apr-18 17:00N 29°58' W 093°52'0 0.0
2018-Apr-18 16:30N 29°58' W 093°52'0 0.0
2018-Apr-18 16:00N 29°58' W 093°52'0 0.0
2018-Apr-18 15:29N 29°58' W 093°52'0 0.0
2018-Apr-18 15:01N 29°58' W 093°52'0 0.0
2018-Apr-18 14:30N 29°58' W 093°52'0 0.0
2018-Apr-18 14:00N 29°58' W 093°52'0 0.0
2018-Apr-18 13:30N 29°58' W 093°52'0 0.0
2018-Apr-18 13:00N 29°58' W 093°52'0 0.0
2018-Apr-18 12:30N 29°58' W 093°52'0 0.0
2018-Apr-18 12:00N 29°58' W 093°52'0 0.0
2018-Apr-18 11:30N 29°58' W 093°52'0 0.0
2018-Apr-18 10:59N 29°58' W 093°52'0 0.0
2018-Apr-18 10:30N 29°58' W 093°52'0 0.0
2018-Apr-18 10:00N 29°58' W 093°52'0 0.0
2018-Apr-18 09:30N 29°58' W 093°52'0 0.0
2018-Apr-18 09:00N 29°58' W 093°52'0 0.0
2018-Apr-18 08:30N 29°58' W 093°52'0 0.0
2018-Apr-18 08:00N 29°58' W 093°52'0 0.0
2018-Apr-18 07:30N 29°58' W 093°52'0 0.0
2018-Apr-18 07:00N 29°58' W 093°52'0 0.0
2018-Apr-18 06:30N 29°58' W 093°52'0 0.0
2018-Apr-18 05:04N 29°58' W 093°52'0 0.0
2018-Apr-18 05:00N 29°58' W 093°52'0 0.0
2018-Apr-18 04:28N 29°58' W 093°52'0 0.0
2018-Apr-18 04:00N 29°58' W 093°52'0 0.0
2018-Apr-18 03:30N 29°58' W 093°52'0 0.0
2018-Apr-18 03:01N 29°58' W 093°52'0 0.0
2018-Apr-18 02:30N 29°58' W 093°52'0 0.0
2018-Apr-18 01:58N 29°58' W 093°52'0 0.0
2018-Apr-18 01:30N 29°58' W 093°52'0 0.0
2018-Apr-18 01:00N 29°58' W 093°52'0 0.0
2018-Apr-18 00:30N 29°58' W 093°52'0 0.0
2018-Apr-18 00:00N 29°58' W 093°52'0 0.0
2018-Apr-17 23:30N 29°58' W 093°52'0 0.0
2018-Apr-17 23:01N 29°58' W 093°52'0 0.0
2018-Apr-17 22:29N 29°58' W 093°52'0 0.0
2018-Apr-17 22:00N 29°58' W 093°52'0 0.0
2018-Apr-17 21:30N 29°58' W 093°52'0 0.0
2018-Apr-17 20:57N 29°58' W 093°52'0 0.0
2018-Apr-17 20:30N 29°58' W 093°52'0 0.0
2018-Apr-17 20:00N 29°58' W 093°52'0 0.0
2018-Apr-17 19:30N 29°58' W 093°52'0 0.0
2018-Apr-17 19:00N 29°58' W 093°52'0 0.0
2018-Apr-17 18:29N 29°58' W 093°52'0 0.0
2018-Apr-17 17:59N 29°58' W 093°52'0 0.0
2018-Apr-17 17:29N 29°58' W 093°52'0 0.0
2018-Apr-17 17:00N 29°58' W 093°52'0 0.0
2018-Apr-17 16:30N 29°58' W 093°52'0 0.0
2018-Apr-17 16:00N 29°58' W 093°52'0 0.0
2018-Apr-17 15:30N 29°58' W 093°52'0 0.0
2018-Apr-17 15:01N 29°58' W 093°52'0 0.0
2018-Apr-17 14:30N 29°58' W 093°52'0 0.0
2018-Apr-17 13:58N 29°58' W 093°52'0 0.0
2018-Apr-17 13:31N 29°58' W 093°52'0 0.0
2018-Apr-17 13:00N 29°58' W 093°52'0 0.0
2018-Apr-17 12:30N 29°58' W 093°52'0 0.0
2018-Apr-17 12:01N 29°58' W 093°52'0 0.0
2018-Apr-17 11:30N 29°58' W 093°52'0 0.0
2018-Apr-17 11:00N 29°58' W 093°52'0 0.0
2018-Apr-17 10:31N 29°58' W 093°52'0 0.0
2018-Apr-17 10:00N 29°58' W 093°52'0 0.0
2018-Apr-17 09:25N 29°58' W 093°52'0 0.0
2018-Apr-17 09:00N 29°58' W 093°52'0 0.0
2018-Apr-17 08:30N 29°58' W 093°52'0 0.0
2018-Apr-17 08:00N 29°58' W 093°52'0 0.0
2018-Apr-17 07:30N 29°58' W 093°52'0 0.0
2018-Apr-17 06:54N 29°58' W 093°52'0 0.0
2018-Apr-17 06:30N 29°58' W 093°52'0 0.0
2018-Apr-17 05:58N 29°58' W 093°52'0 0.0
2018-Apr-17 05:30N 29°58' W 093°52'0 0.0
2018-Apr-17 04:59N 29°58' W 093°52'0 0.0
2018-Apr-17 04:30N 29°58' W 093°52'0 0.0
2018-Apr-17 04:00N 29°58' W 093°52'0 0.0
2018-Apr-17 03:30N 29°58' W 093°52'0 0.0
2018-Apr-17 02:58N 29°58' W 093°52'2 5.0
2018-Apr-17 02:30N 29°59' W 093°54'1 2.0
2018-Apr-17 02:00N 29°60' W 093°55'1 2.7
2018-Apr-17 01:31N 29°59' W 093°54'2 3.9
2018-Apr-17 01:00N 29°58' W 093°52'0 0.0
2018-Apr-17 00:30N 29°58' W 093°52'0 0.0
2018-Apr-17 00:00N 29°58' W 093°52'0 0.0
2018-Apr-16 23:30N 29°58' W 093°52'0 0.0
2018-Apr-16 23:00N 29°58' W 093°52'0 0.0
2018-Apr-16 22:31N 29°58' W 093°52'0 0.0
2018-Apr-16 22:01N 29°58' W 093°52'0 0.0
2018-Apr-16 21:30N 29°58' W 093°52'0 0.0
2018-Apr-16 21:00N 29°58' W 093°52'0 0.0
2018-Apr-16 20:31N 29°58' W 093°52'0 0.0
2018-Apr-16 20:00N 29°58' W 093°52'0 0.0
2018-Apr-16 19:30N 29°58' W 093°52'0 0.0
2018-Apr-16 19:00N 29°58' W 093°52'0 0.0
2018-Apr-16 18:31N 29°58' W 093°52'0 0.0
2018-Apr-16 18:00N 29°58' W 093°52'0 0.0
2018-Apr-16 17:30N 29°58' W 093°52'0 0.0
2018-Apr-16 17:00N 29°58' W 093°52'0 0.0
2018-Apr-16 16:29N 29°58' W 093°52'0 0.0
2018-Apr-16 16:00N 29°58' W 093°52'0 0.0
2018-Apr-16 15:30N 29°58' W 093°52'0 0.0
2018-Apr-16 15:00N 29°58' W 093°52'0 0.0
2018-Apr-16 14:30N 29°58' W 093°52'0 0.0
2018-Apr-16 14:00N 29°58' W 093°52'0 0.0
2018-Apr-16 13:30N 29°58' W 093°52'0 0.0
2018-Apr-16 13:00N 29°58' W 093°52'0 0.0
2018-Apr-16 12:30N 29°58' W 093°52'0 0.0
2018-Apr-16 12:01N 29°58' W 093°52'0 0.0
2018-Apr-16 11:30N 29°58' W 093°52'0 0.0
2018-Apr-16 10:59N 29°58' W 093°52'0 0.0
2018-Apr-16 10:26N 29°58' W 093°52'0 0.0
2018-Apr-16 10:00N 29°58' W 093°52'0 0.0
2018-Apr-16 09:30N 29°58' W 093°52'0 0.0
2018-Apr-16 09:00N 29°58' W 093°52'0 0.0
2018-Apr-16 08:30N 29°58' W 093°52'0 0.0
2018-Apr-16 08:00N 29°58' W 093°52'0 0.0
2018-Apr-16 07:30N 29°58' W 093°52'0 0.0
2018-Apr-16 07:01N 29°58' W 093°52'0 0.0
2018-Apr-16 06:31N 29°58' W 093°52'0 0.0
2018-Apr-16 06:00N 29°58' W 093°52'0 0.0
2018-Apr-16 05:30N 29°58' W 093°52'0 0.0
2018-Apr-16 05:01N 29°58' W 093°52'0 0.0
2018-Apr-16 04:30N 29°58' W 093°52'0 0.0
2018-Apr-16 04:00N 29°58' W 093°52'0 0.0
2018-Apr-16 03:30N 29°58' W 093°52'0 0.0
2018-Apr-16 03:00N 29°58' W 093°52'0 0.0
2018-Apr-16 02:30N 29°58' W 093°52'0 0.0
2018-Apr-16 01:57N 29°58' W 093°52'0 0.0
2018-Apr-16 01:28N 29°58' W 093°52'0 0.0
2018-Apr-16 00:59N 29°58' W 093°52'0 0.0
2018-Apr-16 00:31N 29°58' W 093°52'0 0.0
2018-Apr-16 00:00N 29°58' W 093°52'0 0.0
2018-Apr-15 23:31N 29°58' W 093°52'  
Track history (hours):
 
Tides and Currents Weather Stations Pressure Air Temp Water Temp Dewpoint Dewpoint Depression Visibility Wind Speed Wind Dir Waves Ship Positions

Grace Nicole

Owner: Florida Marine, LLC, Mandeville, LA. More information available from US FCC via Universal Licensing System and Coast Guard Vessel Documentation Center.

Last reported at 2018-Apr-25 23:30 UTC. Time now 2018-Apr-25 23:49 UTC.
Position N 29°58' W 093°52'.

Length 28 m; draft 9.6 m.

Type: Towing. MMSI: 366993380.

Date/timePositionNaut miles runAvg speedWind from/ knotsBaromVisibWave heightAir tempDewpointWater temp
2018-Apr-25 23:30N 29°58' W 093°52'0 0.0
2018-Apr-25 23:00N 29°58' W 093°52'0 0.0
2018-Apr-25 22:30N 29°58' W 093°52'0 0.0
2018-Apr-25 22:00N 29°58' W 093°52'0 0.0
2018-Apr-25 21:30N 29°58' W 093°52'0 0.0
2018-Apr-25 21:00N 29°58' W 093°52'0 0.0
2018-Apr-25 20:30N 29°58' W 093°52'0 0.0
2018-Apr-25 20:00N 29°58' W 093°52'0 0.0
2018-Apr-25 19:30N 29°58' W 093°52'0 0.0
2018-Apr-25 19:00N 29°58' W 093°52'0 0.0
2018-Apr-25 18:31N 29°58' W 093°52'0 0.0
2018-Apr-25 18:01N 29°58' W 093°52'0 0.0
2018-Apr-25 17:30N 29°58' W 093°52'0 0.0
2018-Apr-25 17:01N 29°58' W 093°52'0 0.0
2018-Apr-25 16:30N 29°58' W 093°52'0 0.0
2018-Apr-25 16:01N 29°58' W 093°52'0 0.0
2018-Apr-25 15:30N 29°58' W 093°52'0 0.0
2018-Apr-25 15:00N 29°58' W 093°52'0 0.0
2018-Apr-25 14:31N 29°58' W 093°52'0 0.0
2018-Apr-25 14:01N 29°58' W 093°52'0 0.0
2018-Apr-25 13:31N 29°58' W 093°52'0 0.0
2018-Apr-25 13:01N 29°58' W 093°52'0 0.0
2018-Apr-25 12:30N 29°58' W 093°52'0 0.0
2018-Apr-25 12:01N 29°58' W 093°52'0 0.0
2018-Apr-25 11:31N 29°58' W 093°52'0 0.0
2018-Apr-25 11:00N 29°58' W 093°52'0 0.0
2018-Apr-25 10:30N 29°58' W 093°52'0 0.0
2018-Apr-25 10:00N 29°58' W 093°52'0 0.0
2018-Apr-25 09:30N 29°58' W 093°52'0 0.0
2018-Apr-25 09:00N 29°58' W 093°52'0 0.0
2018-Apr-25 08:30N 29°58' W 093°52'0 0.0
2018-Apr-25 08:00N 29°58' W 093°52'0 0.0
2018-Apr-25 07:31N 29°58' W 093°52'0 0.0
2018-Apr-25 07:00N 29°58' W 093°52'0 0.0
2018-Apr-25 06:30N 29°58' W 093°52'0 0.0
2018-Apr-25 06:01N 29°58' W 093°52'0 0.0
2018-Apr-25 05:30N 29°58' W 093°52'0 0.0
2018-Apr-25 05:01N 29°58' W 093°52'0 0.0
2018-Apr-25 04:31N 29°58' W 093°52'0 0.0
2018-Apr-25 04:01N 29°58' W 093°52'0 0.0
2018-Apr-25 03:30N 29°58' W 093°52'0 0.0
2018-Apr-25 03:00N 29°58' W 093°52'0 0.0
2018-Apr-25 02:30N 29°58' W 093°52'0 0.0
2018-Apr-25 02:01N 29°58' W 093°52'0 0.0
2018-Apr-25 01:30N 29°58' W 093°52'0 0.0
2018-Apr-25 01:01N 29°58' W 093°52'0 0.0
2018-Apr-25 00:30N 29°58' W 093°52'0 0.0
2018-Apr-25 00:00N 29°58' W 093°52'0 0.0
2018-Apr-24 23:30N 29°58' W 093°52'0 0.0
2018-Apr-24 22:11N 29°58' W 093°52'0 0.0
2018-Apr-24 22:00N 29°58' W 093°52'0 0.0
2018-Apr-24 21:30N 29°58' W 093°52'0 0.0
2018-Apr-24 21:01N 29°58' W 093°52'0 0.0
2018-Apr-24 20:31N 29°58' W 093°52'0 0.0
2018-Apr-24 20:00N 29°58' W 093°52'0 0.0
2018-Apr-24 19:31N 29°58' W 093°52'0 0.0
2018-Apr-24 19:01N 29°58' W 093°52'0 0.0
2018-Apr-24 18:30N 29°58' W 093°52'0 0.0
2018-Apr-24 18:00N 29°58' W 093°52'0 0.0
2018-Apr-24 17:31N 29°58' W 093°52'0 0.0
2018-Apr-24 17:01N 29°58' W 093°52'0 0.1
2018-Apr-24 16:30N 29°58' W 093°52'3 6.2
2018-Apr-24 16:01N 29°60' W 093°55'0 0.2
2018-Apr-24 15:31N 29°60' W 093°55'0 0.0
2018-Apr-24 15:00N 29°60' W 093°55'0 0.0
2018-Apr-24 14:30N 29°60' W 093°55'0 0.0
2018-Apr-24 14:00N 29°60' W 093°55'0 0.0
2018-Apr-24 13:31N 29°60' W 093°55'0 0.0
2018-Apr-24 13:01N 29°60' W 093°55'0 0.0
2018-Apr-24 12:30N 29°60' W 093°55'1 1.3
2018-Apr-24 12:00N 29°60' W 093°55'3 5.9
2018-Apr-24 11:30N 30°01' W 093°59'1 1.6
2018-Apr-24 11:01N 30°01' W 093°59'0 0.4
2018-Apr-24 10:30N 30°01' W 093°59'3 5.0
2018-Apr-24 10:00N 30°01' W 094°02'3 6.9
2018-Apr-24 09:30N 30°05' W 094°04'0 0.0
2018-Apr-24 09:01N 30°04' W 094°04'0 0.0
2018-Apr-24 08:30N 30°04' W 094°04'0 0.1
2018-Apr-24 08:00N 30°04' W 094°04'0 0.0
2018-Apr-24 07:30N 30°04' W 094°04'3 5.3
2018-Apr-24 07:00N 30°02' W 094°02'3 5.6
2018-Apr-24 06:30N 30°01' W 093°59'0 0.9
2018-Apr-24 06:00N 30°01' W 093°59'3 6.3
2018-Apr-24 05:30N 29°59' W 093°56'1 1.8
2018-Apr-24 05:01N 29°60' W 093°55'0 0.0
2018-Apr-24 04:30N 29°60' W 093°55'0 0.0
2018-Apr-24 04:00N 29°60' W 093°55'0 0.0
2018-Apr-24 03:30N 29°60' W 093°55'0 0.0
2018-Apr-24 03:00N 29°60' W 093°55'0 0.0
2018-Apr-24 02:30N 29°60' W 093°55'0 0.0
2018-Apr-24 02:00N 29°60' W 093°55'0 0.0
2018-Apr-24 01:30N 29°60' W 093°55'0 0.0
2018-Apr-24 01:00N 29°60' W 093°55'0 0.0
2018-Apr-24 00:31N 29°60' W 093°55'0 0.0
2018-Apr-24 00:00N 29°60' W 093°55'2 4.9
2018-Apr-23 23:30N 29°59' W 093°52'2 3.3
2018-Apr-23 23:01N 29°59' W 093°50'4 8.2
2018-Apr-23 22:29N 30°00' W 093°46'4 7.7
2018-Apr-23 21:56N 30°03' W 093°42'3 6.9
2018-Apr-23 21:30N 30°04' W 093°39'3 6.9
2018-Apr-23 21:00N 30°04' W 093°35'3 5.5
2018-Apr-23 20:30N 30°04' W 093°32'0 0.1
2018-Apr-23 20:00N 30°04' W 093°32'0 0.1
2018-Apr-23 19:30N 30°04' W 093°32'4 7.2
2018-Apr-23 19:00N 30°04' W 093°36'4 8.5
2018-Apr-23 18:30N 30°04' W 093°41'4 7.3
2018-Apr-23 18:01N 30°02' W 093°44'4 7.4
2018-Apr-23 17:30N 29°59' W 093°47'4 7.2
2018-Apr-23 17:01N 29°58' W 093°51'0 0.9
2018-Apr-23 16:30N 29°58' W 093°52'0 0.7
2018-Apr-23 16:00N 29°58' W 093°52'0 0.0
2018-Apr-23 15:29N 29°58' W 093°52'0 0.0
2018-Apr-23 15:00N 29°58' W 093°52'0 0.0
2018-Apr-23 14:31N 29°58' W 093°52'0 0.0
2018-Apr-23 13:59N 29°58' W 093°52'3 5.5
2018-Apr-23 13:30N 29°59' W 093°54'1 1.2
2018-Apr-23 13:00N 29°60' W 093°55'0 0.0
2018-Apr-23 12:30N 29°60' W 093°55'0 0.0
2018-Apr-23 12:01N 29°60' W 093°55'0 0.0
2018-Apr-23 11:30N 29°60' W 093°55'0 0.0
2018-Apr-23 11:01N 29°60' W 093°55'0 0.0
2018-Apr-23 10:30N 29°60' W 093°55'0 0.0
2018-Apr-23 10:00N 29°60' W 093°55'0 0.0
2018-Apr-23 09:30N 29°60' W 093°55'0 0.0
2018-Apr-23 09:00N 29°60' W 093°55'0 0.0
2018-Apr-23 08:30N 29°60' W 093°55'0 0.0
2018-Apr-23 08:01N 29°60' W 093°55'0 0.0
2018-Apr-23 07:30N 29°60' W 093°55'0 0.0
2018-Apr-23 07:00N 29°60' W 093°55'0 0.0
2018-Apr-23 06:31N 29°60' W 093°55'0 0.0
2018-Apr-23 06:00N 29°60' W 093°55'2 3.2
2018-Apr-23 05:30N 29°59' W 093°53'0 0.5
2018-Apr-23 05:00N 29°59' W 093°53'0 0.0
2018-Apr-23 04:30N 29°59' W 093°53'0 0.0
2018-Apr-23 04:00N 29°59' W 093°53'0 0.0
2018-Apr-23 03:31N 29°59' W 093°53'0 0.0
2018-Apr-23 03:00N 29°59' W 093°53'0 0.0
2018-Apr-23 02:31N 29°59' W 093°53'0 0.0
2018-Apr-23 02:00N 29°59' W 093°53'0 0.0
2018-Apr-23 01:30N 29°59' W 093°53'0 0.0
2018-Apr-23 01:00N 29°59' W 093°53'0 0.0
2018-Apr-23 00:30N 29°59' W 093°53'0 0.0
2018-Apr-23 00:00N 29°59' W 093°53'0 0.0
2018-Apr-22 23:30N 29°59' W 093°53'0 0.0
2018-Apr-22 23:01N 29°59' W 093°53'0 0.0
2018-Apr-22 22:30N 29°59' W 093°53'0 0.0
2018-Apr-22 22:00N 29°59' W 093°53'0 0.0
2018-Apr-22 21:30N 29°59' W 093°53'0 0.0
2018-Apr-22 21:00N 29°59' W 093°53'0 0.0
2018-Apr-22 20:30N 29°59' W 093°53'0 0.0
2018-Apr-22 20:00N 29°59' W 093°53'0 0.0
2018-Apr-22 19:30N 29°59' W 093°53'0 0.0
2018-Apr-22 19:00N 29°59' W 093°53'0 0.0
2018-Apr-22 18:30N 29°59' W 093°53'0 0.0
2018-Apr-22 18:00N 29°59' W 093°53'0 0.0
2018-Apr-22 17:30N 29°59' W 093°53'0 0.0
2018-Apr-22 17:00N 29°59' W 093°53'0 0.0
2018-Apr-22 16:30N 29°59' W 093°53'0 0.0
2018-Apr-22 16:00N 29°59' W 093°53'0 0.0
2018-Apr-22 15:31N 29°59' W 093°53'0 0.0
2018-Apr-22 15:01N 29°59' W 093°53'0 0.0
2018-Apr-22 14:30N 29°59' W 093°53'0 0.0
2018-Apr-22 14:00N 29°59' W 093°53'0 0.0
2018-Apr-22 13:30N 29°59' W 093°53'0 0.0
2018-Apr-22 13:00N 29°59' W 093°53'0 0.0
2018-Apr-22 12:30N 29°59' W 093°53'0 0.0
2018-Apr-22 12:00N 29°59' W 093°53'0 0.0
2018-Apr-22 11:31N 29°59' W 093°53'0 0.0
2018-Apr-22 11:00N 29°59' W 093°53'0 0.0
2018-Apr-22 10:30N 29°59' W 093°53'0 0.0
2018-Apr-22 10:00N 29°59' W 093°53'0 0.0
2018-Apr-22 09:30N 29°59' W 093°53'0 0.0
2018-Apr-22 09:01N 29°59' W 093°53'0 0.0
2018-Apr-22 08:30N 29°59' W 093°53'0 0.0
2018-Apr-22 08:00N 29°59' W 093°53'0 0.0
2018-Apr-22 07:31N 29°59' W 093°53'0 0.0
2018-Apr-22 07:00N 29°59' W 093°53'0 0.0
2018-Apr-22 06:30N 29°59' W 093°53'0 0.0
2018-Apr-22 06:00N 29°59' W 093°53'0 0.0
2018-Apr-22 05:30N 29°59' W 093°53'0 0.0
2018-Apr-22 05:00N 29°59' W 093°53'0 0.0
2018-Apr-22 04:30N 29°59' W 093°53'0 0.0
2018-Apr-22 04:00N 29°59' W 093°53'0 0.0
2018-Apr-22 03:30N 29°59' W 093°53'0 0.0
2018-Apr-22 03:01N 29°59' W 093°53'0 0.0
2018-Apr-22 02:31N 29°59' W 093°53'0 0.0
2018-Apr-22 02:00N 29°59' W 093°53'0 0.0
2018-Apr-22 01:31N 29°59' W 093°53'0 0.0
2018-Apr-22 01:01N 29°59' W 093°53'0 0.0
2018-Apr-22 00:31N 29°59' W 093°53'0 0.0
2018-Apr-22 00:01N 29°59' W 093°53'0 0.0
2018-Apr-21 23:31N 29°59' W 093°53'0 0.0
2018-Apr-21 23:01N 29°59' W 093°53'0 0.0
2018-Apr-21 22:30N 29°59' W 093°53'0 0.0
2018-Apr-21 22:00N 29°59' W 093°53'0 0.0
2018-Apr-21 21:30N 29°59' W 093°53'0 0.0
2018-Apr-21 21:01N 29°59' W 093°53'0 0.0
2018-Apr-21 20:31N 29°59' W 093°53'0 0.0
2018-Apr-21 20:01N 29°59' W 093°53'0 0.0
2018-Apr-21 19:31N 29°59' W 093°53'0 0.0
2018-Apr-21 19:01N 29°59' W 093°53'0 0.0
2018-Apr-21 18:30N 29°59' W 093°53'0 0.0
2018-Apr-21 18:01N 29°59' W 093°53'0 0.0
2018-Apr-21 17:30N 29°59' W 093°53'0 0.1
2018-Apr-21 17:01N 29°59' W 093°53'1 1.3
2018-Apr-21 16:31N 29°59' W 093°52'1 2.3
2018-Apr-21 16:00N 29°58' W 093°51'1 1.0
2018-Apr-21 15:30N 29°58' W 093°51'3 5.3
2018-Apr-21 15:00N 29°59' W 093°54'3 5.4
2018-Apr-21 14:31N 29°58' W 093°51'0 0.5
2018-Apr-21 14:00N 29°58' W 093°52'0 0.0
2018-Apr-21 13:30N 29°58' W 093°52'0 0.0
2018-Apr-21 13:00N 29°58' W 093°52'0 0.0
2018-Apr-21 12:30N 29°58' W 093°52'0 0.0
2018-Apr-21 12:00N 29°58' W 093°52'0 0.0
2018-Apr-21 11:31N 29°58' W 093°52'0 0.0
2018-Apr-21 11:01N 29°58' W 093°52'0 0.0
2018-Apr-21 10:30N 29°58' W 093°52'0 0.0
2018-Apr-21 10:00N 29°58' W 093°52'0 0.0
2018-Apr-21 09:30N 29°58' W 093°52'0 0.0
2018-Apr-21 09:01N 29°58' W 093°52'0 0.0
2018-Apr-21 08:30N 29°58' W 093°52'0 0.0
2018-Apr-21 08:01N 29°58' W 093°52'0 0.0
2018-Apr-21 07:31N 29°58' W 093°52'0 0.0
2018-Apr-21 07:00N 29°58' W 093°52'0 0.0
2018-Apr-21 06:30N 29°58' W 093°52'0 0.0
2018-Apr-21 06:00N 29°58' W 093°52'0 0.0
2018-Apr-21 05:29N 29°58' W 093°52'0 0.0
2018-Apr-21 04:59N 29°58' W 093°52'0 0.0
2018-Apr-21 04:30N 29°58' W 093°52'0 0.0
2018-Apr-21 04:00N 29°58' W 093°52'0 0.0
2018-Apr-21 03:30N 29°58' W 093°52'0 0.0
2018-Apr-21 03:00N 29°58' W 093°52'0 0.0
2018-Apr-21 02:30N 29°58' W 093°52'0 0.0
2018-Apr-21 02:00N 29°58' W 093°52'0 0.0
2018-Apr-21 01:30N 29°58' W 093°52'0 0.0
2018-Apr-21 00:59N 29°58' W 093°52'0 0.0
2018-Apr-21 00:30N 29°58' W 093°52'0 0.0
2018-Apr-21 00:00N 29°58' W 093°52'0 0.0
2018-Apr-20 23:30N 29°58' W 093°52'0 0.0
2018-Apr-20 23:01N 29°58' W 093°52'0 0.0
2018-Apr-20 22:30N 29°58' W 093°52'0 0.0
2018-Apr-20 22:01N 29°58' W 093°52'0 0.0
2018-Apr-20 21:30N 29°58' W 093°52'0 0.0
2018-Apr-20 21:00N 29°58' W 093°52'0 0.0
2018-Apr-20 20:30N 29°58' W 093°52'0 0.0
2018-Apr-20 20:01N 29°58' W 093°52'0 0.0
2018-Apr-20 19:29N 29°58' W 093°52'0 0.0
2018-Apr-20 19:01N 29°58' W 093°52'0 0.0
2018-Apr-20 18:27N 29°58' W 093°52'0 0.0
2018-Apr-20 18:00N 29°58' W 093°52'0 0.0
2018-Apr-20 17:30N 29°58' W 093°52'0 0.0
2018-Apr-20 17:00N 29°58' W 093°52'0 0.0
2018-Apr-20 16:30N 29°58' W 093°52'0 0.0
2018-Apr-20 16:00N 29°58' W 093°52'0 0.0
2018-Apr-20 15:29N 29°58' W 093°52'0 0.0
2018-Apr-20 15:00N 29°58' W 093°52'0 0.0
2018-Apr-20 14:31N 29°58' W 093°52'0 0.0
2018-Apr-20 14:00N 29°58' W 093°52'0 0.0
2018-Apr-20 13:29N 29°58' W 093°52'0 0.0
2018-Apr-20 13:00N 29°58' W 093°52'0 0.0
2018-Apr-20 12:30N 29°58' W 093°52'0 0.0
2018-Apr-20 11:59N 29°58' W 093°52'0 0.0
2018-Apr-20 11:31N 29°58' W 093°52'0 0.0
2018-Apr-20 11:01N 29°58' W 093°52'0 0.0
2018-Apr-20 10:31N 29°58' W 093°52'0 0.0
2018-Apr-20 10:00N 29°58' W 093°52'0 0.0
2018-Apr-20 09:30N 29°58' W 093°52'0 0.0
2018-Apr-20 09:00N 29°58' W 093°52'0 0.0
2018-Apr-20 08:29N 29°58' W 093°52'0 0.0
2018-Apr-20 08:00N 29°58' W 093°52'0 0.0
2018-Apr-20 07:30N 29°58' W 093°52'0 0.0
2018-Apr-20 06:59N 29°58' W 093°52'0 0.0
2018-Apr-20 06:29N 29°58' W 093°52'0 0.0
2018-Apr-20 05:59N 29°58' W 093°52'0 0.0
2018-Apr-20 05:29N 29°58' W 093°52'0 0.0
2018-Apr-20 05:00N 29°58' W 093°52'0 0.0
2018-Apr-20 04:30N 29°58' W 093°52'0 0.0
2018-Apr-20 04:00N 29°58' W 093°52'0 0.0
2018-Apr-20 03:30N 29°58' W 093°52'0 0.0
2018-Apr-20 03:00N 29°58' W 093°52'0 0.0
2018-Apr-20 02:31N 29°58' W 093°52'0 0.0
2018-Apr-20 01:59N 29°58' W 093°52'0 0.0
2018-Apr-20 01:30N 29°58' W 093°52'0 0.0
2018-Apr-20 01:01N 29°58' W 093°52'0 0.0
2018-Apr-20 00:30N 29°58' W 093°52'0 0.0
2018-Apr-20 00:00N 29°58' W 093°52'0 0.0
2018-Apr-19 23:30N 29°58' W 093°52'0 0.0
2018-Apr-19 22:59N 29°58' W 093°52'0 0.0
2018-Apr-19 22:30N 29°58' W 093°52'0 0.0
2018-Apr-19 22:00N 29°58' W 093°52'0 0.0
2018-Apr-19 21:31N 29°58' W 093°52'0 0.0
2018-Apr-19 20:59N 29°58' W 093°52'0 0.0
2018-Apr-19 20:30N 29°58' W 093°52'0 0.0
2018-Apr-19 20:01N 29°58' W 093°52'0 0.0
2018-Apr-19 19:31N 29°58' W 093°52'0 0.0
2018-Apr-19 19:00N 29°58' W 093°52'0 0.0
2018-Apr-19 18:31N 29°58' W 093°52'0 0.4
2018-Apr-19 18:00N 29°58' W 093°51'0 0.4
2018-Apr-19 17:28N 29°58' W 093°52'0 0.0
2018-Apr-19 17:00N 29°58' W 093°52'0 0.0
2018-Apr-19 16:30N 29°58' W 093°52'0 0.0
2018-Apr-19 16:00N 29°58' W 093°52'0 0.0
2018-Apr-19 15:31N 29°58' W 093°52'0 0.0
2018-Apr-19 15:00N 29°58' W 093°52'0 0.0
2018-Apr-19 14:30N 29°58' W 093°52'0 0.0
2018-Apr-19 14:01N 29°58' W 093°52'0 0.0
2018-Apr-19 13:28N 29°58' W 093°52'0 0.0
2018-Apr-19 13:01N 29°58' W 093°52'0 0.0
2018-Apr-19 12:30N 29°58' W 093°52'0 0.0
2018-Apr-19 12:00N 29°58' W 093°52'0 0.0
2018-Apr-19 11:31N 29°58' W 093°52'0 0.0
2018-Apr-19 10:59N 29°58' W 093°52'0 0.0
2018-Apr-19 10:30N 29°58' W 093°52'0 0.0
2018-Apr-19 10:00N 29°58' W 093°52'0 0.0
2018-Apr-19 09:31N 29°58' W 093°52'0 0.0
2018-Apr-19 09:00N 29°58' W 093°52'0 0.0
2018-Apr-19 08:30N 29°58' W 093°52'0 0.0
2018-Apr-19 08:01N 29°58' W 093°52'0 0.0
2018-Apr-19 07:30N 29°58' W 093°52'0 0.0
2018-Apr-19 07:01N 29°58' W 093°52'0 0.0
2018-Apr-19 06:30N 29°58' W 093°52'0 0.0
2018-Apr-19 06:00N 29°58' W 093°52'0 0.0
2018-Apr-19 05:31N 29°58' W 093°52'0 0.0
2018-Apr-19 04:59N 29°58' W 093°52'0 0.0
2018-Apr-19 04:30N 29°58' W 093°52'0 0.0
2018-Apr-19 04:00N 29°58' W 093°52'0 0.0
2018-Apr-19 03:30N 29°58' W 093°52'0 0.0
2018-Apr-19 02:58N 29°58' W 093°52'0 0.0
2018-Apr-19 02:30N 29°58' W 093°52'0 0.0
2018-Apr-19 02:00N 29°58' W 093°52'0 0.0
2018-Apr-19 01:31N 29°58' W 093°52'0 0.0
2018-Apr-19 00:59N 29°58' W 093°52'0 0.0
2018-Apr-19 00:30N 29°58' W 093°52'0 0.0
2018-Apr-18 23:58N 29°58' W 093°52'0 0.0
2018-Apr-18 23:30N 29°58' W 093°52'0 0.0
2018-Apr-18 23:00N 29°58' W 093°52'0 0.0
2018-Apr-18 22:30N 29°58' W 093°52'0 0.0
2018-Apr-18 22:00N 29°58' W 093°52'0 0.0
2018-Apr-18 21:29N 29°58' W 093°52'0 0.0
2018-Apr-18 21:00N 29°58' W 093°52'0 0.0
2018-Apr-18 20:31N 29°58' W 093°52'0 0.0
2018-Apr-18 20:01N 29°58' W 093°52'0 0.0
2018-Apr-18 19:31N 29°58' W 093°52'0 0.0
2018-Apr-18 19:00N 29°58' W 093°52'0 0.0
2018-Apr-18 18:30N 29°58' W 093°52'0 0.0
2018-Apr-18 18:01N 29°58' W 093°52'0 0.0
2018-Apr-18 17:31N 29°58' W 093°52'0 0.0
2018-Apr-18 17:00N 29°58' W 093°52'0 0.0
2018-Apr-18 16:30N 29°58' W 093°52'0 0.0
2018-Apr-18 16:00N 29°58' W 093°52'0 0.0
2018-Apr-18 15:29N 29°58' W 093°52'0 0.0
2018-Apr-18 15:01N 29°58' W 093°52'0 0.0
2018-Apr-18 14:30N 29°58' W 093°52'0 0.0
2018-Apr-18 14:00N 29°58' W 093°52'0 0.0
2018-Apr-18 13:30N 29°58' W 093°52'0 0.0
2018-Apr-18 13:00N 29°58' W 093°52'0 0.0
2018-Apr-18 12:30N 29°58' W 093°52'0 0.0
2018-Apr-18 12:00N 29°58' W 093°52'0 0.0
2018-Apr-18 11:30N 29°58' W 093°52'0 0.0
2018-Apr-18 10:59N 29°58' W 093°52'0 0.0
2018-Apr-18 10:30N 29°58' W 093°52'0 0.0
2018-Apr-18 10:00N 29°58' W 093°52'0 0.0
2018-Apr-18 09:30N 29°58' W 093°52'0 0.0
2018-Apr-18 09:00N 29°58' W 093°52'0 0.0
2018-Apr-18 08:30N 29°58' W 093°52'0 0.0
2018-Apr-18 08:00N 29°58' W 093°52'0 0.0
2018-Apr-18 07:30N 29°58' W 093°52'0 0.0
2018-Apr-18 07:00N 29°58' W 093°52'0 0.0
2018-Apr-18 06:30N 29°58' W 093°52'0 0.0
2018-Apr-18 05:04N 29°58' W 093°52'0 0.0
2018-Apr-18 05:00N 29°58' W 093°52'0 0.0
2018-Apr-18 04:28N 29°58' W 093°52'0 0.0
2018-Apr-18 04:00N 29°58' W 093°52'0 0.0
2018-Apr-18 03:30N 29°58' W 093°52'0 0.0
2018-Apr-18 03:01N 29°58' W 093°52'0 0.0
2018-Apr-18 02:30N 29°58' W 093°52'0 0.0
2018-Apr-18 01:58N 29°58' W 093°52'0 0.0
2018-Apr-18 01:30N 29°58' W 093°52'0 0.0
2018-Apr-18 01:00N 29°58' W 093°52'0 0.0
2018-Apr-18 00:30N 29°58' W 093°52'0 0.0
2018-Apr-18 00:00N 29°58' W 093°52'0 0.0
2018-Apr-17 23:30N 29°58' W 093°52'0 0.0
2018-Apr-17 23:01N 29°58' W 093°52'0 0.0
2018-Apr-17 22:29N 29°58' W 093°52'0 0.0
2018-Apr-17 22:00N 29°58' W 093°52'0 0.0
2018-Apr-17 21:30N 29°58' W 093°52'0 0.0
2018-Apr-17 20:57N 29°58' W 093°52'0 0.0
2018-Apr-17 20:30N 29°58' W 093°52'0 0.0
2018-Apr-17 20:00N 29°58' W 093°52'0 0.0
2018-Apr-17 19:30N 29°58' W 093°52'0 0.0
2018-Apr-17 19:00N 29°58' W 093°52'0 0.0
2018-Apr-17 18:29N 29°58' W 093°52'0 0.0
2018-Apr-17 17:59N 29°58' W 093°52'0 0.0
2018-Apr-17 17:29N 29°58' W 093°52'0 0.0
2018-Apr-17 17:00N 29°58' W 093°52'0 0.0
2018-Apr-17 16:30N 29°58' W 093°52'0 0.0
2018-Apr-17 16:00N 29°58' W 093°52'0 0.0
2018-Apr-17 15:30N 29°58' W 093°52'0 0.0
2018-Apr-17 15:01N 29°58' W 093°52'0 0.0
2018-Apr-17 14:30N 29°58' W 093°52'0 0.0
2018-Apr-17 13:58N 29°58' W 093°52'0 0.0
2018-Apr-17 13:31N 29°58' W 093°52'0 0.0
2018-Apr-17 13:00N 29°58' W 093°52'0 0.0
2018-Apr-17 12:30N 29°58' W 093°52'0 0.0
2018-Apr-17 12:01N 29°58' W 093°52'0 0.0
2018-Apr-17 11:30N 29°58' W 093°52'0 0.0
2018-Apr-17 11:00N 29°58' W 093°52'0 0.0
2018-Apr-17 10:31N 29°58' W 093°52'0 0.0
2018-Apr-17 10:00N 29°58' W 093°52'0 0.0
2018-Apr-17 09:25N 29°58' W 093°52'0 0.0
2018-Apr-17 09:00N 29°58' W 093°52'0 0.0
2018-Apr-17 08:30N 29°58' W 093°52'0 0.0
2018-Apr-17 08:00N 29°58' W 093°52'0 0.0
2018-Apr-17 07:30N 29°58' W 093°52'0 0.0
2018-Apr-17 06:54N 29°58' W 093°52'0 0.0
2018-Apr-17 06:30N 29°58' W 093°52'0 0.0
2018-Apr-17 05:58N 29°58' W 093°52'0 0.0
2018-Apr-17 05:30N 29°58' W 093°52'0 0.0
2018-Apr-17 04:59N 29°58' W 093°52'0 0.0
2018-Apr-17 04:30N 29°58' W 093°52'0 0.0
2018-Apr-17 04:00N 29°58' W 093°52'0 0.0
2018-Apr-17 03:30N 29°58' W 093°52'0 0.0
2018-Apr-17 02:58N 29°58' W 093°52'2 5.0
2018-Apr-17 02:30N 29°59' W 093°54'1 2.0
2018-Apr-17 02:00N 29°60' W 093°55'1 2.7
2018-Apr-17 01:31N 29°59' W 093°54'2 3.9
2018-Apr-17 01:00N 29°58' W 093°52'0 0.0
2018-Apr-17 00:30N 29°58' W 093°52'0 0.0
2018-Apr-17 00:00N 29°58' W 093°52'0 0.0
2018-Apr-16 23:30N 29°58' W 093°52'0 0.0
2018-Apr-16 23:00N 29°58' W 093°52'0 0.0
2018-Apr-16 22:31N 29°58' W 093°52'0 0.0
2018-Apr-16 22:01N 29°58' W 093°52'0 0.0
2018-Apr-16 21:30N 29°58' W 093°52'0 0.0
2018-Apr-16 21:00N 29°58' W 093°52'0 0.0
2018-Apr-16 20:31N 29°58' W 093°52'0 0.0
2018-Apr-16 20:00N 29°58' W 093°52'0 0.0
2018-Apr-16 19:30N 29°58' W 093°52'0 0.0
2018-Apr-16 19:00N 29°58' W 093°52'0 0.0
2018-Apr-16 18:31N 29°58' W 093°52'0 0.0
2018-Apr-16 18:00N 29°58' W 093°52'0 0.0
2018-Apr-16 17:30N 29°58' W 093°52'0 0.0
2018-Apr-16 17:00N 29°58' W 093°52'0 0.0
2018-Apr-16 16:29N 29°58' W 093°52'0 0.0
2018-Apr-16 16:00N 29°58' W 093°52'0 0.0
2018-Apr-16 15:30N 29°58' W 093°52'0 0.0
2018-Apr-16 15:00N 29°58' W 093°52'0 0.0
2018-Apr-16 14:30N 29°58' W 093°52'0 0.0
2018-Apr-16 14:00N 29°58' W 093°52'0 0.0
2018-Apr-16 13:30N 29°58' W 093°52'0 0.0
2018-Apr-16 13:00N 29°58' W 093°52'0 0.0
2018-Apr-16 12:30N 29°58' W 093°52'0 0.0
2018-Apr-16 12:01N 29°58' W 093°52'0 0.0
2018-Apr-16 11:30N 29°58' W 093°52'0 0.0
2018-Apr-16 10:59N 29°58' W 093°52'0 0.0
2018-Apr-16 10:26N 29°58' W 093°52'0 0.0
2018-Apr-16 10:00N 29°58' W 093°52'0 0.0
2018-Apr-16 09:30N 29°58' W 093°52'0 0.0
2018-Apr-16 09:00N 29°58' W 093°52'0 0.0
2018-Apr-16 08:30N 29°58' W 093°52'0 0.0
2018-Apr-16 08:00N 29°58' W 093°52'0 0.0
2018-Apr-16 07:30N 29°58' W 093°52'0 0.0
2018-Apr-16 07:01N 29°58' W 093°52'0 0.0
2018-Apr-16 06:31N 29°58' W 093°52'0 0.0
2018-Apr-16 06:00N 29°58' W 093°52'0 0.0
2018-Apr-16 05:30N 29°58' W 093°52'0 0.0
2018-Apr-16 05:01N 29°58' W 093°52'0 0.0
2018-Apr-16 04:30N 29°58' W 093°52'0 0.0
2018-Apr-16 04:00N 29°58' W 093°52'0 0.0
2018-Apr-16 03:30N 29°58' W 093°52'0 0.0
2018-Apr-16 03:00N 29°58' W 093°52'0 0.0
2018-Apr-16 02:30N 29°58' W 093°52'0 0.0
2018-Apr-16 01:57N 29°58' W 093°52'0 0.0
2018-Apr-16 01:28N 29°58' W 093°52'0 0.0
2018-Apr-16 00:59N 29°58' W 093°52'0 0.0
2018-Apr-16 00:31N 29°58' W 093°52'0 0.0
2018-Apr-16 00:00N 29°58' W 093°52'0 0.0
2018-Apr-15 23:31N 29°58' W 093°52'  

Dump ship's entire track history